createdAt,value
2022-08-16T00:03:13.651Z,11.50
2022-08-16T00:06:21.229Z,9.60
2022-08-16T00:09:27.584Z,9.90
2022-08-16T00:12:34.713Z,10.60
2022-08-16T00:15:51.986Z,11.20
2022-08-16T00:19:01.141Z,10.70
2022-08-16T00:22:12.983Z,11.80
2022-08-16T00:26:33.438Z,10.40
2022-08-16T00:28:49.541Z,10.10
2022-08-16T00:32:05.934Z,12.30
2022-08-16T00:35:16.306Z,10.40
2022-08-16T00:38:40.514Z,10.30
2022-08-16T00:41:50.005Z,10.20
2022-08-16T00:45:00.590Z,10.40
2022-08-16T00:48:30.308Z,9.20
2022-08-16T00:51:38.677Z,9.60
2022-08-16T00:54:44.906Z,9.90
2022-08-16T00:58:00.145Z,10.80
2022-08-16T01:01:08.828Z,9.90
2022-08-16T01:04:29.341Z,10.70
2022-08-16T01:07:50.713Z,9.90
2022-08-16T01:11:00.077Z,9.70
2022-08-16T01:14:13.610Z,10.40
2022-08-16T01:17:21.069Z,9.90
2022-08-16T01:20:35.018Z,9.70
2022-08-16T01:23:57.990Z,9.70
2022-08-16T01:27:15.021Z,10.10
2022-08-16T01:30:26.344Z,9.70
2022-08-16T01:33:33.256Z,10.80
2022-08-16T01:36:39.895Z,11.20
2022-08-16T01:39:47.320Z,10.70
2022-08-16T01:42:55.332Z,10.70
2022-08-16T01:46:37.748Z,10.40
2022-08-16T01:50:40.599Z,9.70
2022-08-16T01:52:59.075Z,11.00
2022-08-16T01:56:07.111Z,10.20
2022-08-16T01:59:16.965Z,11.10
2022-08-16T02:02:27.503Z,10.90
2022-08-16T02:05:34.981Z,11.90
2022-08-16T02:08:41.072Z,10.50
2022-08-16T02:11:52.903Z,10.80
2022-08-16T02:15:00.196Z,10.70
2022-08-16T02:18:08.427Z,11.10
2022-08-16T02:21:31.264Z,11.40
2022-08-16T02:24:41.118Z,10.40
2022-08-16T02:27:51.102Z,10.20
2022-08-16T02:31:00.003Z,11.70
2022-08-16T02:34:08.217Z,10.90
2022-08-16T02:37:20.865Z,10.50
2022-08-16T02:40:28.417Z,10.90
2022-08-16T02:43:37.786Z,10.90
2022-08-16T02:46:49.725Z,10.40
2022-08-16T02:50:52.290Z,10.40
2022-08-16T02:53:23.813Z,10.10
2022-08-16T02:56:32.048Z,9.90
2022-08-16T02:59:41.498Z,9.90
2022-08-16T03:02:48.137Z,9.20
2022-08-16T03:06:02.466Z,9.50
2022-08-16T03:09:29.905Z,8.90
2022-08-16T03:12:55.493Z,9.20
2022-08-16T03:16:02.859Z,8.50
2022-08-16T03:19:09.572Z,9.00
2022-08-16T03:22:18.912Z,9.30
2022-08-16T03:25:41.189Z,8.90
2022-08-16T03:28:51.099Z,9.00
2022-08-16T03:31:58.979Z,8.80
2022-08-16T03:35:06.538Z,8.50
2022-08-16T03:38:34.565Z,8.70
2022-08-16T03:41:50.550Z,8.80
2022-08-16T03:45:03.800Z,9.20
2022-08-16T03:48:15.151Z,9.00
2022-08-16T03:51:25.893Z,9.00
2022-08-16T03:54:31.909Z,8.70
2022-08-16T03:57:42.162Z,8.70
2022-08-16T04:00:59.407Z,8.90
2022-08-16T04:04:06.107Z,9.20
2022-08-16T04:07:15.071Z,9.00
2022-08-16T04:10:35.855Z,8.00
2022-08-16T04:14:00.625Z,8.10
2022-08-16T04:17:09.777Z,7.50
2022-08-16T04:20:29.527Z,8.30
2022-08-16T04:23:40.026Z,8.30
2022-08-16T04:26:46.769Z,8.30
2022-08-16T04:29:53.105Z,7.90
2022-08-16T04:33:09.945Z,8.10
2022-08-16T04:36:20.166Z,8.00
2022-08-16T04:39:46.242Z,8.50
2022-08-16T04:42:54.789Z,7.90
2022-08-16T04:46:03.191Z,7.90
2022-08-16T04:49:09.896Z,7.60
2022-08-16T04:52:32.852Z,8.30
2022-08-16T04:55:41.671Z,7.80
2022-08-16T04:58:48.222Z,8.20
2022-08-16T05:01:58.767Z,8.20
2022-08-16T05:05:06.405Z,8.90
2022-08-16T05:08:29.720Z,8.80
2022-08-16T05:11:36.764Z,8.00
2022-08-16T05:14:46.509Z,9.00
2022-08-16T05:18:07.755Z,8.00
2022-08-16T05:21:23.388Z,8.60
2022-08-16T05:24:29.632Z,9.80
2022-08-16T05:27:43.031Z,9.10
2022-08-16T05:30:51.390Z,8.80
2022-08-16T05:33:57.650Z,14.10
2022-08-16T05:37:04.558Z,11.40
2022-08-16T05:40:14.375Z,8.10
2022-08-16T05:43:21.518Z,9.20
2022-08-16T05:46:30.226Z,8.40
2022-08-16T05:49:39.619Z,8.10
2022-08-16T05:52:46.524Z,8.10
2022-08-16T05:55:53.214Z,7.80
2022-08-16T05:58:59.800Z,9.20
2022-08-16T06:02:06.408Z,8.80
2022-08-16T06:05:14.558Z,8.10
2022-08-16T06:08:31.496Z,7.70
2022-08-16T06:11:39.038Z,14.00
2022-08-16T06:14:49.633Z,8.80
2022-08-16T06:17:59.022Z,8.40
2022-08-16T06:21:06.747Z,12.70
2022-08-16T06:24:52.778Z,15.60
2022-08-16T06:27:41.994Z,9.80
2022-08-16T06:31:03.999Z,7.40
2022-08-16T06:34:55.778Z,8.70
2022-08-16T06:37:37.802Z,8.50
2022-08-16T06:40:47.931Z,8.70
2022-08-16T06:43:56.611Z,9.60
2022-08-16T06:47:03.061Z,13.60
2022-08-16T06:50:10.939Z,10.30
2022-08-16T06:53:29.662Z,9.50
2022-08-16T06:56:36.428Z,9.90
2022-08-16T06:59:52.496Z,9.50
2022-08-16T07:03:04.263Z,9.90
2022-08-16T07:06:31.547Z,10.40
2022-08-16T07:09:37.975Z,10.00
2022-08-16T07:12:47.392Z,9.80
2022-08-16T07:16:15.444Z,8.70
2022-08-16T07:19:21.694Z,9.80
2022-08-16T07:22:52.660Z,10.20
2022-08-16T07:26:05.948Z,8.80
2022-08-16T07:29:12.151Z,9.70
2022-08-16T07:32:20.980Z,8.10
2022-08-16T07:35:36.321Z,10.30
2022-08-16T07:38:43.551Z,12.20
2022-08-16T07:41:51.562Z,7.50
2022-08-16T07:44:59.475Z,7.60
2022-08-16T07:48:11.821Z,7.10
2022-08-16T07:51:18.966Z,7.00
2022-08-16T07:54:32.347Z,6.60
2022-08-16T07:58:00.958Z,7.50
2022-08-16T08:01:12.674Z,7.90
2022-08-16T08:04:21.696Z,8.20
2022-08-16T08:07:29.329Z,10.30
2022-08-16T08:10:38.954Z,8.50
2022-08-16T08:13:45.124Z,7.90
2022-08-16T08:16:51.994Z,7.80
2022-08-16T08:19:59.339Z,7.50
2022-08-16T08:23:06.027Z,7.10
2022-08-16T08:26:17.392Z,7.30
2022-08-16T08:29:36.877Z,7.90
2022-08-16T08:32:58.489Z,9.00
2022-08-16T08:36:11.698Z,8.90
2022-08-16T08:39:28.082Z,8.20
2022-08-16T08:42:34.354Z,8.00
2022-08-16T08:45:47.202Z,7.00
2022-08-16T08:48:59.686Z,7.60
2022-08-16T08:52:09.553Z,10.20
2022-08-16T08:55:17.038Z,8.70
2022-08-16T08:58:23.137Z,7.50
2022-08-16T09:01:36.513Z,8.70
2022-08-16T09:04:43.355Z,8.40
2022-08-16T09:08:01.037Z,9.00
2022-08-16T09:11:08.195Z,7.80
2022-08-16T09:14:24.219Z,8.20
2022-08-16T09:17:49.060Z,7.20
2022-08-16T09:21:01.791Z,7.50
2022-08-16T09:24:09.818Z,8.90
2022-08-16T09:27:16.295Z,10.30
2022-08-16T09:30:34.728Z,6.70
2022-08-16T09:33:52.041Z,7.70
2022-08-16T09:37:00.301Z,7.50
2022-08-16T09:40:31.681Z,6.60
2022-08-16T09:43:59.703Z,7.10
2022-08-16T09:47:03.514Z,7.40
2022-08-16T09:50:22.921Z,7.40
2022-08-16T09:53:30.313Z,8.60
2022-08-16T09:56:39.137Z,6.80
2022-08-16T09:59:45.381Z,6.50
2022-08-16T10:02:52.811Z,7.20
2022-08-16T10:05:59.019Z,8.40
2022-08-16T10:09:06.790Z,8.30
2022-08-16T10:12:32.381Z,7.70
2022-08-16T10:15:41.745Z,7.90
2022-08-16T10:19:00.748Z,7.10
2022-08-16T10:22:12.807Z,7.70
2022-08-16T10:27:19.484Z,7.00
2022-08-16T10:28:45.736Z,7.50
2022-08-16T10:31:56.536Z,7.20
2022-08-16T10:35:03.883Z,7.70
2022-08-16T10:38:10.094Z,7.20
2022-08-16T10:41:33.853Z,7.60
2022-08-16T10:44:40.027Z,7.50
2022-08-16T10:48:00.484Z,7.50
2022-08-16T10:51:10.399Z,7.40
2022-08-16T10:54:29.097Z,7.50
2022-08-16T10:57:36.404Z,9.00
2022-08-16T11:00:46.314Z,8.10
2022-08-16T11:03:54.505Z,8.30
2022-08-16T11:07:08.684Z,8.00
2022-08-16T11:14:10.761Z,7.40
2022-08-16T11:17:18.494Z,8.00
2022-08-16T11:20:48.954Z,8.10
2022-08-16T11:23:58.190Z,7.20
2022-08-16T11:27:23.314Z,7.50
2022-08-16T11:30:39.378Z,7.70
2022-08-16T11:33:53.253Z,7.50
2022-08-16T11:37:00.993Z,7.70
2022-08-16T11:40:09.925Z,8.50
2022-08-16T11:43:20.358Z,8.10
2022-08-16T11:46:45.345Z,8.00
2022-08-16T11:49:53.140Z,7.80
2022-08-16T11:52:59.297Z,8.10
2022-08-16T11:56:09.291Z,7.10
2022-08-16T11:59:16.017Z,7.40
2022-08-16T12:02:31.589Z,7.70
2022-08-16T12:05:40.517Z,7.70
2022-08-16T12:08:48.982Z,8.00
2022-08-16T12:11:55.412Z,8.30
2022-08-16T12:15:01.964Z,7.50
2022-08-16T12:18:09.529Z,7.40
2022-08-16T12:21:15.741Z,7.00
2022-08-16T12:24:26.311Z,7.70
2022-08-16T12:27:33.214Z,7.20
2022-08-16T12:30:43.809Z,6.80
2022-08-16T12:33:50.767Z,8.00
2022-08-16T12:37:05.674Z,7.70
2022-08-16T12:40:23.917Z,7.00
2022-08-16T12:43:31.486Z,6.90
2022-08-16T12:46:37.717Z,6.00
2022-08-16T12:49:45.246Z,5.90
2022-08-16T12:52:53.443Z,6.40
2022-08-16T12:55:59.797Z,6.30
2022-08-16T12:59:16.838Z,6.40
2022-08-16T13:02:33.444Z,7.20
2022-08-16T13:05:47.751Z,6.50
2022-08-16T13:09:02.575Z,7.50
2022-08-16T13:12:21.094Z,7.50
2022-08-16T13:15:30.197Z,6.80
2022-08-16T13:18:38.422Z,7.40
2022-08-16T13:21:45.155Z,7.20
2022-08-16T13:24:56.630Z,7.50
2022-08-16T13:28:06.340Z,7.80
2022-08-16T13:31:12.470Z,7.10
2022-08-16T13:34:22.147Z,7.70
2022-08-16T13:37:28.314Z,8.00
2022-08-16T13:40:34.659Z,7.40
2022-08-16T13:43:42.022Z,8.90
2022-08-16T13:46:48.778Z,8.20
2022-08-16T13:49:57.167Z,9.30
2022-08-16T13:53:04.289Z,8.50
2022-08-16T13:56:11.591Z,9.00
2022-08-16T13:59:31.153Z,8.50
2022-08-16T14:02:41.081Z,8.40
2022-08-16T14:05:47.344Z,7.90
2022-08-16T14:09:06.670Z,8.60
2022-08-16T14:12:22.208Z,8.00
2022-08-16T14:15:28.704Z,7.70
2022-08-16T14:18:38.178Z,7.90
2022-08-16T14:22:13.444Z,8.80
2022-08-16T14:25:18.627Z,7.60
2022-08-16T14:28:25.786Z,7.90
2022-08-16T14:31:35.012Z,7.50
2022-08-16T14:34:45.479Z,7.80
2022-08-16T14:37:57.025Z,7.50
2022-08-16T14:41:03.576Z,7.50
2022-08-16T14:44:13.156Z,8.30
2022-08-16T14:47:20.759Z,8.50
2022-08-16T14:50:28.738Z,8.30
2022-08-16T14:53:35.029Z,7.20
2022-08-16T14:56:46.651Z,6.40
2022-08-16T15:00:05.784Z,4.80
2022-08-16T15:03:12.973Z,5.40
2022-08-16T15:06:20.515Z,6.50
2022-08-16T15:09:26.998Z,6.50
2022-08-16T15:12:36.346Z,7.60
2022-08-16T15:15:44.193Z,8.40
2022-08-16T15:18:58.923Z,10.90
2022-08-16T15:22:05.430Z,9.00
2022-08-16T15:25:14.556Z,8.80
2022-08-16T15:28:30.678Z,8.80
2022-08-16T15:31:41.554Z,11.50
2022-08-16T15:34:50.334Z,18.10
2022-08-16T15:37:56.752Z,10.40
2022-08-16T15:41:03.572Z,13.40
2022-08-16T15:44:13.336Z,12.80
2022-08-16T15:47:19.779Z,9.90
2022-08-16T15:50:25.950Z,9.40
2022-08-16T15:53:32.453Z,15.80
2022-08-16T15:56:51.649Z,13.90
2022-08-16T16:00:04.597Z,12.00
2022-08-16T16:03:15.047Z,9.50
2022-08-16T16:06:21.465Z,9.30
2022-08-16T16:09:37.138Z,10.00
2022-08-16T16:12:51.127Z,9.30
2022-08-16T16:16:03.256Z,9.60
2022-08-16T16:19:09.645Z,10.00
2022-08-16T16:22:17.537Z,8.80
2022-08-16T16:25:24.619Z,9.90
2022-08-16T16:29:06.290Z,10.20
2022-08-16T16:32:00.188Z,10.30
2022-08-16T16:35:07.406Z,9.90
2022-08-16T16:38:14.295Z,9.10
2022-08-16T16:41:25.158Z,8.80
2022-08-16T16:44:36.316Z,8.00
2022-08-16T16:47:44.913Z,9.30
2022-08-16T16:50:51.741Z,9.00
2022-08-16T16:54:00.393Z,8.20
2022-08-16T16:57:26.802Z,8.70
2022-08-16T17:00:38.585Z,8.70
2022-08-16T17:03:45.029Z,8.50
2022-08-16T17:07:00.093Z,9.00
2022-08-16T17:10:06.967Z,9.00
2022-08-16T17:13:14.779Z,9.30
2022-08-16T17:16:21.988Z,9.80
2022-08-16T17:19:41.313Z,9.20
2022-08-16T17:22:54.566Z,9.20
2022-08-16T17:26:01.032Z,9.90
2022-08-16T17:29:11.650Z,8.60
2022-08-16T17:32:33.780Z,15.00
2022-08-16T17:35:55.714Z,9.10
2022-08-16T17:39:02.219Z,9.50
2022-08-16T17:42:15.939Z,10.00
2022-08-16T17:45:22.763Z,9.00
2022-08-16T17:48:31.191Z,9.10
2022-08-16T17:51:37.345Z,9.70
2022-08-16T17:54:45.328Z,14.50
2022-08-16T17:57:52.379Z,16.30
2022-08-16T18:01:01.831Z,14.70
2022-08-16T18:04:10.015Z,9.70
2022-08-16T18:07:16.372Z,10.40
2022-08-16T18:10:32.875Z,9.80
2022-08-16T18:13:43.453Z,10.50
2022-08-16T18:16:49.666Z,9.10
2022-08-16T18:19:55.704Z,10.00
2022-08-16T18:23:12.387Z,12.80
2022-08-16T18:26:21.572Z,12.00
2022-08-16T18:29:27.656Z,12.80
2022-08-16T18:32:34.454Z,21.50
2022-08-16T18:35:40.775Z,11.30
2022-08-16T18:38:46.818Z,10.80
2022-08-16T18:41:52.934Z,13.90
2022-08-16T18:44:59.098Z,13.20
2022-08-16T18:48:05.778Z,10.90
2022-08-16T18:51:18.241Z,25.20
2022-08-16T18:54:28.306Z,10.60
2022-08-16T18:57:34.378Z,13.20
2022-08-16T19:00:56.817Z,12.10
2022-08-16T19:04:03.299Z,11.30
2022-08-16T19:07:09.475Z,10.30
2022-08-16T19:10:15.583Z,9.50
2022-08-16T19:13:24.329Z,10.70
2022-08-16T19:16:30.575Z,9.90
2022-08-16T19:19:36.696Z,10.20
2022-08-16T19:26:24.446Z,10.30
2022-08-16T19:29:32.424Z,10.30
2022-08-16T19:32:39.422Z,11.00
2022-08-16T19:35:45.913Z,10.50
2022-08-16T19:38:52.066Z,11.40
2022-08-16T19:42:00.197Z,11.90
2022-08-16T19:45:08.164Z,21.10
2022-08-16T19:48:14.327Z,27.80
2022-08-16T19:51:20.616Z,21.10
2022-08-16T19:54:26.870Z,14.50
2022-08-16T19:57:33.423Z,13.10
2022-08-16T20:00:43.304Z,12.90
2022-08-16T20:03:49.788Z,11.90
2022-08-16T20:06:56.379Z,12.60
2022-08-16T20:10:03.245Z,12.30
2022-08-16T20:13:14.884Z,11.30
2022-08-16T20:16:20.959Z,11.40
2022-08-16T20:19:28.233Z,11.50
2022-08-16T20:22:52.865Z,11.70
2022-08-16T20:26:01.015Z,11.80
2022-08-16T20:29:07.335Z,10.40
2022-08-16T20:32:16.343Z,12.20
2022-08-16T20:35:25.779Z,11.70
2022-08-16T20:38:31.954Z,11.00
2022-08-16T20:41:38.158Z,10.70
2022-08-16T20:44:45.139Z,10.40
2022-08-16T20:47:51.361Z,10.60
2022-08-16T20:50:59.975Z,14.40
2022-08-16T20:54:06.324Z,15.60
2022-08-16T20:57:13.186Z,17.40
2022-08-16T21:00:20.412Z,12.70
2022-08-16T21:03:26.786Z,12.60
2022-08-16T21:06:32.920Z,12.90
2022-08-16T21:09:39.547Z,11.70
2022-08-16T21:12:53.152Z,11.30
2022-08-16T21:16:00.115Z,11.50
2022-08-16T21:19:06.348Z,12.00
2022-08-16T21:22:20.617Z,11.10
2022-08-16T21:25:27.311Z,12.00
2022-08-16T21:28:41.688Z,10.70
2022-08-16T21:31:49.407Z,12.10
2022-08-16T21:34:55.578Z,11.00
2022-08-16T21:38:28.856Z,11.20
2022-08-16T21:41:28.096Z,11.10
2022-08-16T21:44:38.504Z,10.20
2022-08-16T21:47:45.743Z,21.00
2022-08-16T21:50:51.831Z,14.00
2022-08-16T21:53:58.096Z,11.50
2022-08-16T21:57:10.185Z,10.00
2022-08-16T22:00:19.337Z,10.20
2022-08-16T22:03:25.932Z,11.00
2022-08-16T22:06:32.151Z,11.20
2022-08-16T22:09:38.219Z,10.40
2022-08-16T22:12:44.414Z,10.20
2022-08-16T22:15:51.888Z,12.40
2022-08-16T22:18:58.096Z,23.90
2022-08-16T22:22:04.810Z,10.80
2022-08-16T22:25:11.889Z,13.10
2022-08-16T22:28:18.965Z,12.60
2022-08-16T22:31:25.486Z,12.80
2022-08-16T22:34:31.775Z,15.90
2022-08-16T22:37:37.896Z,17.70
2022-08-16T22:40:44.790Z,12.40
2022-08-16T22:43:50.918Z,13.10
2022-08-16T22:46:57.415Z,12.60
2022-08-16T22:50:03.544Z,16.80
2022-08-16T22:53:10.493Z,17.10
2022-08-16T22:56:17.760Z,16.30
2022-08-16T22:59:25.050Z,11.50
2022-08-16T23:02:31.228Z,9.20
2022-08-16T23:05:40.071Z,10.00
2022-08-16T23:08:46.891Z,12.00
2022-08-16T23:11:53.436Z,12.00
2022-08-16T23:15:02.939Z,11.50
2022-08-16T23:18:10.490Z,11.50
2022-08-16T23:21:19.305Z,11.10
2022-08-16T23:24:25.475Z,12.20
2022-08-16T23:27:31.653Z,11.00
2022-08-16T23:30:40.686Z,13.10
2022-08-16T23:33:47.008Z,11.20
2022-08-16T23:36:53.320Z,9.90
2022-08-16T23:39:59.563Z,10.50
2022-08-16T23:43:07.817Z,10.20
2022-08-16T23:46:17.014Z,9.70
2022-08-16T23:49:56.713Z,9.90
2022-08-16T23:53:05.439Z,10.50
2022-08-16T23:56:14.142Z,10.40
2022-08-16T23:59:20.198Z,11.70
